createdAt,value
2019-05-09T00:01:15.547Z,50.90
2019-05-09T00:03:45.219Z,50.90
2019-05-09T00:06:14.895Z,50.90
2019-05-09T00:08:44.502Z,50.90
2019-05-09T00:11:14.628Z,50.90
2019-05-09T00:13:44.486Z,50.90
2019-05-09T00:16:14.682Z,50.90
2019-05-09T00:18:44.477Z,50.90
2019-05-09T00:21:19.247Z,50.80
2019-05-09T00:23:48.851Z,50.80
2019-05-09T00:26:18.527Z,50.80
2019-05-09T00:28:53.232Z,50.80
2019-05-09T00:31:48.324Z,50.80
2019-05-09T00:34:26.735Z,50.80
2019-05-09T00:36:56.340Z,50.90
2019-05-09T00:39:25.935Z,50.90
2019-05-09T00:41:55.548Z,50.80
2019-05-09T00:44:27.732Z,50.80
2019-05-09T00:47:16.429Z,50.80
2019-05-09T00:49:46.023Z,50.80
2019-05-09T00:52:15.619Z,50.80
2019-05-09T00:54:45.211Z,50.80
2019-05-09T00:57:33.574Z,50.80
2019-05-09T01:00:08.520Z,50.80
2019-05-09T01:02:39.095Z,50.80
2019-05-09T01:05:08.954Z,50.80
2019-05-09T01:07:38.647Z,50.80
2019-05-09T01:10:09.211Z,50.70
2019-05-09T01:12:38.816Z,50.70
2019-05-09T01:15:08.855Z,50.70
2019-05-09T01:17:38.526Z,50.70
2019-05-09T01:20:08.687Z,50.70
2019-05-09T01:22:38.294Z,50.70
2019-05-09T01:25:08.035Z,50.70
2019-05-09T01:27:37.644Z,50.70
2019-05-09T01:30:07.564Z,50.70
2019-05-09T01:33:03.606Z,50.70
2019-05-09T01:35:34.004Z,50.70
2019-05-09T01:38:03.813Z,50.60
2019-05-09T01:40:33.503Z,50.60
2019-05-09T01:43:04.501Z,50.60
2019-05-09T01:45:35.239Z,50.60
2019-05-09T01:48:05.005Z,50.60
2019-05-09T01:50:34.595Z,50.60
2019-05-09T01:53:04.254Z,50.60
2019-05-09T01:55:53.836Z,50.60
2019-05-09T01:58:23.311Z,50.60
2019-05-09T02:00:53.995Z,50.60
2019-05-09T02:03:24.930Z,50.60
2019-05-09T02:05:54.591Z,50.50
2019-05-09T02:08:24.207Z,50.50
2019-05-09T02:10:54.368Z,50.50
2019-05-09T02:13:24.031Z,50.50
2019-05-09T02:16:13.980Z,50.50
2019-05-09T02:18:57.175Z,50.50
2019-05-09T02:21:26.786Z,50.50
2019-05-09T02:23:56.412Z,50.50
2019-05-09T02:26:26.018Z,50.50
2019-05-09T02:28:55.612Z,50.50
2019-05-09T02:31:25.212Z,50.50
2019-05-09T02:33:54.812Z,50.60
2019-05-09T02:36:24.424Z,50.60
2019-05-09T02:38:54.013Z,50.60
2019-05-09T02:41:23.715Z,50.60
2019-05-09T02:43:54.289Z,50.50
2019-05-09T02:46:38.324Z,50.50
2019-05-09T02:49:08.803Z,50.50
2019-05-09T02:51:38.831Z,50.60
2019-05-09T02:54:09.767Z,50.50
2019-05-09T02:56:39.797Z,50.60
2019-05-09T02:59:21.907Z,50.50
2019-05-09T03:02:01.964Z,50.50
2019-05-09T03:04:31.834Z,50.50
2019-05-09T03:07:01.507Z,50.60
2019-05-09T03:09:31.362Z,50.50
2019-05-09T03:12:20.497Z,50.50
2019-05-09T03:14:32.326Z,50.50
2019-05-09T03:17:02.407Z,50.50
2019-05-09T03:19:32.098Z,50.50
2019-05-09T03:22:08.736Z,50.50
2019-05-09T03:24:39.449Z,50.50
2019-05-09T03:27:15.032Z,50.50
2019-05-09T03:29:49.049Z,50.50
2019-05-09T03:32:19.711Z,50.40
2019-05-09T03:34:49.475Z,50.40
2019-05-09T03:37:19.103Z,50.40
2019-05-09T03:39:48.771Z,50.40
2019-05-09T03:42:21.603Z,50.40
2019-05-09T03:44:49.692Z,50.30
2019-05-09T03:47:37.687Z,50.30
2019-05-09T03:50:08.559Z,50.30
2019-05-09T03:52:39.127Z,50.30
2019-05-09T03:55:10.907Z,50.30
2019-05-09T03:57:44.360Z,50.30
2019-05-09T04:00:14.279Z,50.30
2019-05-09T04:02:43.888Z,50.40
2019-05-09T04:05:13.551Z,50.40
2019-05-09T04:07:43.175Z,50.40
2019-05-09T04:10:12.861Z,50.50
2019-05-09T04:12:55.555Z,50.50
2019-05-09T04:15:14.094Z,50.50
2019-05-09T04:17:44.106Z,50.50
2019-05-09T04:20:17.325Z,50.50
2019-05-09T04:22:48.937Z,50.50
2019-05-09T04:25:21.859Z,50.50
2019-05-09T04:27:52.510Z,50.50
2019-05-09T04:30:22.184Z,50.50
2019-05-09T04:32:51.775Z,50.50
2019-05-09T04:35:21.463Z,50.50
2019-05-09T04:37:51.059Z,50.50
2019-05-09T04:40:20.688Z,50.60
2019-05-09T04:42:50.283Z,50.60
2019-05-09T04:45:28.349Z,50.60
2019-05-09T04:47:58.060Z,50.60
2019-05-09T04:50:27.990Z,50.60
2019-05-09T04:52:58.092Z,50.60
2019-05-09T04:55:29.335Z,50.70
2019-05-09T04:58:00.225Z,50.70
2019-05-09T05:00:49.004Z,50.90
2019-05-09T05:03:18.595Z,50.90
2019-05-09T05:05:48.309Z,51.10
2019-05-09T05:08:18.220Z,51.20
2019-05-09T05:10:47.883Z,51.20
2019-05-09T05:13:26.009Z,51.20
2019-05-09T05:15:48.767Z,51.30
2019-05-09T05:18:20.265Z,51.30
2019-05-09T05:20:49.659Z,51.40
2019-05-09T05:23:27.484Z,51.40
2019-05-09T05:25:57.998Z,51.40
2019-05-09T05:28:27.892Z,51.50
2019-05-09T05:30:58.201Z,51.60
2019-05-09T05:33:38.227Z,51.50
2019-05-09T05:36:08.941Z,51.60
2019-05-09T05:38:38.537Z,51.60
2019-05-09T05:41:08.158Z,51.60
2019-05-09T05:43:44.039Z,51.70
2019-05-09T05:46:33.875Z,51.60
2019-05-09T05:49:03.555Z,51.60
2019-05-09T05:51:48.844Z,51.70
2019-05-09T05:54:21.695Z,51.80
2019-05-09T05:56:51.369Z,51.80
2019-05-09T05:59:20.992Z,51.80
2019-05-09T06:01:50.563Z,51.70
2019-05-09T06:04:20.171Z,51.50
2019-05-09T06:06:49.764Z,51.80
2019-05-09T06:09:19.371Z,51.00
2019-05-09T06:11:48.972Z,50.90
2019-05-09T06:14:18.805Z,50.90
2019-05-09T06:16:48.857Z,50.80
2019-05-09T06:19:18.556Z,49.80
2019-05-09T06:21:52.236Z,49.90
2019-05-09T06:24:21.471Z,50.10
2019-05-09T06:26:51.069Z,50.30
2019-05-09T06:29:20.691Z,50.40
2019-05-09T06:31:50.291Z,50.60
2019-05-09T06:34:19.984Z,50.70
2019-05-09T06:36:49.588Z,50.70
2019-05-09T06:39:19.204Z,50.80
2019-05-09T06:41:48.800Z,50.90
2019-05-09T06:44:37.536Z,50.90
2019-05-09T06:47:11.592Z,50.90
2019-05-09T06:49:43.919Z,50.90
2019-05-09T06:52:13.523Z,50.90
2019-05-09T06:54:43.122Z,51.00
2019-05-09T06:57:12.732Z,51.00
2019-05-09T06:59:42.320Z,51.00
2019-05-09T07:02:21.759Z,51.20
2019-05-09T07:05:17.933Z,50.90
2019-05-09T07:08:00.111Z,50.90
2019-05-09T07:10:29.753Z,50.90
2019-05-09T07:12:59.355Z,51.00
2019-05-09T07:15:28.968Z,51.00
2019-05-09T07:17:58.563Z,50.90
2019-05-09T07:20:28.496Z,50.70
2019-05-09T07:22:58.495Z,50.60
2019-05-09T07:25:59.185Z,50.60
2019-05-09T07:28:28.854Z,50.40
2019-05-09T07:31:23.359Z,49.50
2019-05-09T07:34:00.403Z,49.20
2019-05-09T07:36:30.559Z,48.90
2019-05-09T07:39:00.159Z,49.20
2019-05-09T07:41:29.761Z,49.10
2019-05-09T07:43:59.355Z,49.10
2019-05-09T07:46:38.451Z,48.50
2019-05-09T07:49:10.991Z,47.80
2019-05-09T07:51:40.599Z,47.70
2019-05-09T07:54:22.051Z,47.00
2019-05-09T07:56:42.631Z,46.70
2019-05-09T07:59:12.259Z,47.20
2019-05-09T08:01:41.876Z,47.20
2019-05-09T08:04:11.475Z,46.70
2019-05-09T08:06:41.107Z,45.70
2019-05-09T08:09:10.796Z,46.00
2019-05-09T08:11:40.436Z,46.60
2019-05-09T08:14:10.946Z,46.50
2019-05-09T08:16:41.638Z,45.80
2019-05-09T08:19:11.278Z,45.20
2019-05-09T08:21:40.907Z,44.30
2019-05-09T08:24:10.628Z,43.50
2019-05-09T08:26:40.255Z,42.90
2019-05-09T08:29:09.909Z,42.70
2019-05-09T08:31:40.400Z,42.80
2019-05-09T08:34:10.154Z,43.30
2019-05-09T08:36:39.798Z,43.70
2019-05-09T08:39:09.670Z,44.60
2019-05-09T08:41:39.294Z,44.60
2019-05-09T08:44:09.064Z,44.30
2019-05-09T08:46:38.695Z,43.10
2019-05-09T08:49:08.448Z,43.20
2019-05-09T08:52:06.969Z,44.00
2019-05-09T08:54:38.044Z,43.50
2019-05-09T08:57:08.400Z,43.10
2019-05-09T08:59:38.407Z,43.80
2019-05-09T09:02:15.069Z,44.50
2019-05-09T09:04:39.615Z,45.10
2019-05-09T09:07:10.068Z,45.50
2019-05-09T09:09:39.803Z,45.90
2019-05-09T09:12:25.839Z,46.30
2019-05-09T09:14:40.833Z,46.60
2019-05-09T09:17:10.491Z,47.00
2019-05-09T09:19:40.131Z,47.20
2019-05-09T09:22:09.850Z,47.40
2019-05-09T09:24:39.481Z,47.50
2019-05-09T09:27:09.279Z,47.50
2019-05-09T09:29:38.902Z,47.40
2019-05-09T09:32:08.670Z,47.80
2019-05-09T09:34:38.507Z,47.90
2019-05-09T09:37:11.310Z,47.90
2019-05-09T09:39:44.613Z,48.00
2019-05-09T09:42:11.059Z,48.20
2019-05-09T09:44:40.712Z,48.10
2019-05-09T09:47:10.350Z,48.40
2019-05-09T09:49:39.971Z,48.40
2019-05-09T09:52:09.782Z,48.70
2019-05-09T09:54:39.399Z,48.90
2019-05-09T09:57:09.852Z,48.90
2019-05-09T10:00:07.630Z,48.90
2019-05-09T10:02:38.006Z,49.10
2019-05-09T10:05:07.967Z,49.10
2019-05-09T10:07:38.469Z,49.10
2019-05-09T10:10:08.395Z,49.10
2019-05-09T10:12:44.329Z,49.20
2019-05-09T10:15:21.507Z,49.00
2019-05-09T10:17:58.393Z,48.90
2019-05-09T10:20:38.547Z,49.10
2019-05-09T10:23:17.650Z,49.00
2019-05-09T10:25:39.760Z,49.20
2019-05-09T10:28:09.404Z,49.30
2019-05-09T10:30:39.045Z,49.30
2019-05-09T10:33:09.337Z,49.60
2019-05-09T10:35:39.370Z,49.60
2019-05-09T10:38:09.167Z,49.70
2019-05-09T10:40:40.131Z,49.80
2019-05-09T10:43:37.624Z,50.00
2019-05-09T10:46:08.499Z,50.10
2019-05-09T10:48:38.693Z,50.10
2019-05-09T10:51:10.460Z,50.00
2019-05-09T10:53:39.652Z,50.10
2019-05-09T10:56:09.289Z,50.20
2019-05-09T10:58:39.006Z,50.20
2019-05-09T11:01:09.206Z,50.40
2019-05-09T11:03:38.978Z,50.40
2019-05-09T11:06:08.805Z,50.30
2019-05-09T11:08:38.519Z,50.30
2019-05-09T11:11:09.443Z,50.30
2019-05-09T11:13:39.287Z,50.20
2019-05-09T11:16:08.914Z,50.00
2019-05-09T11:18:38.550Z,49.80
2019-05-09T11:21:08.543Z,49.60
2019-05-09T11:23:39.296Z,49.60
2019-05-09T11:26:10.047Z,49.60
2019-05-09T11:28:39.697Z,49.60
2019-05-09T11:31:09.552Z,50.20
2019-05-09T11:33:39.320Z,49.60
2019-05-09T11:36:09.898Z,49.60
2019-05-09T11:38:43.751Z,49.70
2019-05-09T11:41:11.007Z,49.70
2019-05-09T11:43:41.652Z,49.60
2019-05-09T11:46:11.387Z,49.70
2019-05-09T11:48:41.027Z,49.60
2019-05-09T11:51:10.650Z,49.70
2019-05-09T11:53:41.251Z,49.70
2019-05-09T11:56:10.870Z,49.70
2019-05-09T11:58:40.512Z,49.70
2019-05-09T12:01:10.221Z,49.70
2019-05-09T12:03:39.863Z,49.70
2019-05-09T12:06:09.635Z,49.80
2019-05-09T12:08:39.364Z,49.90
2019-05-09T12:11:09.081Z,49.90
2019-05-09T12:13:38.722Z,49.90
2019-05-09T12:16:08.353Z,49.80
2019-05-09T12:18:38.007Z,49.80
2019-05-09T12:21:08.558Z,49.70
2019-05-09T12:23:38.324Z,49.70
2019-05-09T12:26:08.301Z,49.70
2019-05-09T12:28:38.642Z,49.70
2019-05-09T12:31:08.376Z,49.60
2019-05-09T12:33:38.028Z,49.60
2019-05-09T12:36:09.190Z,49.50
2019-05-09T12:38:40.020Z,49.40
2019-05-09T12:41:09.643Z,49.30
2019-05-09T12:43:39.280Z,49.30
2019-05-09T12:46:08.925Z,49.10
2019-05-09T12:48:38.548Z,49.10
2019-05-09T12:51:08.340Z,49.10
2019-05-09T12:53:39.617Z,49.20
2019-05-09T12:56:09.400Z,49.10
2019-05-09T12:58:39.036Z,49.10
2019-05-09T13:01:08.852Z,49.10
2019-05-09T13:03:38.482Z,49.00
2019-05-09T13:06:08.397Z,49.00
2019-05-09T13:08:38.592Z,48.90
2019-05-09T13:11:08.364Z,48.80
2019-05-09T13:13:40.862Z,48.90
2019-05-09T13:16:19.616Z,48.90
2019-05-09T13:19:03.206Z,48.90
2019-05-09T13:21:33.410Z,48.80
2019-05-09T13:24:03.372Z,48.80
2019-05-09T13:26:33.032Z,48.70
2019-05-09T13:29:02.663Z,48.80
2019-05-09T13:31:34.695Z,48.70
2019-05-09T13:34:03.728Z,48.70
2019-05-09T13:36:33.431Z,48.80
2019-05-09T13:39:05.188Z,48.80
2019-05-09T13:41:37.479Z,48.80
2019-05-09T13:44:12.975Z,48.80
2019-05-09T13:46:38.767Z,48.90
2019-05-09T13:49:14.765Z,48.90
2019-05-09T13:51:49.093Z,49.00
2019-05-09T13:54:11.333Z,49.10
2019-05-09T13:56:40.994Z,49.10
2019-05-09T13:59:10.701Z,49.20
2019-05-09T14:01:40.348Z,49.20
2019-05-09T14:04:10.066Z,49.20
2019-05-09T14:06:39.804Z,49.20
2019-05-09T14:09:10.671Z,49.30
2019-05-09T14:11:40.559Z,49.30
2019-05-09T14:14:10.229Z,49.30
2019-05-09T14:16:39.869Z,49.20
2019-05-09T14:19:29.171Z,49.20
2019-05-09T14:21:40.858Z,49.10
2019-05-09T14:24:15.405Z,49.20
2019-05-09T14:26:41.887Z,49.20
2019-05-09T14:29:13.143Z,49.30
2019-05-09T14:31:43.058Z,49.40
2019-05-09T14:34:13.740Z,49.50
2019-05-09T14:36:45.779Z,49.50
2019-05-09T14:39:14.706Z,49.60
2019-05-09T14:41:47.095Z,49.60
2019-05-09T14:44:17.943Z,49.70
2019-05-09T14:46:48.135Z,49.70
2019-05-09T14:49:18.051Z,49.80
2019-05-09T14:51:49.994Z,49.80
2019-05-09T14:54:19.079Z,49.80
2019-05-09T14:56:48.807Z,49.80
2019-05-09T14:59:18.753Z,49.90
2019-05-09T15:01:49.577Z,49.90
2019-05-09T15:04:20.431Z,50.00
2019-05-09T15:06:50.067Z,50.00
2019-05-09T15:09:19.698Z,49.90
2019-05-09T15:11:49.356Z,49.70
2019-05-09T15:14:19.047Z,49.50
2019-05-09T15:16:48.914Z,49.40
2019-05-09T15:19:18.651Z,49.40
2019-05-09T15:21:48.888Z,49.30
2019-05-09T15:24:19.355Z,49.30
2019-05-09T15:26:49.150Z,49.50
2019-05-09T15:29:18.780Z,49.50
2019-05-09T15:31:54.213Z,49.60
2019-05-09T15:34:19.772Z,49.60
2019-05-09T15:36:49.416Z,49.70
2019-05-09T15:39:19.048Z,49.70
2019-05-09T15:41:49.668Z,49.80
2019-05-09T15:44:19.306Z,50.20
2019-05-09T15:46:53.315Z,49.40
2019-05-09T15:49:22.950Z,49.10
2019-05-09T15:51:52.605Z,48.80
2019-05-09T15:54:22.247Z,48.50
2019-05-09T15:56:51.874Z,48.40
2019-05-09T15:59:21.527Z,48.50
2019-05-09T16:01:51.300Z,48.50
2019-05-09T16:04:21.004Z,48.20
2019-05-09T16:06:51.927Z,48.20
2019-05-09T16:09:22.956Z,48.30
2019-05-09T16:11:52.667Z,48.10
2019-05-09T16:14:22.289Z,47.70
2019-05-09T16:16:51.951Z,47.70
2019-05-09T16:19:21.644Z,48.00
2019-05-09T16:21:51.299Z,48.80
2019-05-09T16:24:20.981Z,48.30
2019-05-09T16:26:50.620Z,48.40
2019-05-09T16:29:20.332Z,48.60
2019-05-09T16:31:49.970Z,48.60
2019-05-09T16:34:19.603Z,48.60
2019-05-09T16:36:49.257Z,48.60
2019-05-09T16:39:18.894Z,48.70
2019-05-09T16:41:48.769Z,48.70
2019-05-09T16:44:18.751Z,48.80
2019-05-09T16:46:49.569Z,48.80
2019-05-09T16:49:19.835Z,48.80
2019-05-09T16:51:50.011Z,48.80
2019-05-09T16:54:21.274Z,48.90
2019-05-09T16:56:50.975Z,48.90
2019-05-09T16:59:20.702Z,49.00
2019-05-09T17:01:50.709Z,49.00
2019-05-09T17:04:20.499Z,49.70
2019-05-09T17:06:50.128Z,49.20
2019-05-09T17:09:19.786Z,49.30
2019-05-09T17:11:49.490Z,49.30
2019-05-09T17:14:20.103Z,49.40
2019-05-09T17:16:52.817Z,49.40
2019-05-09T17:19:21.220Z,49.30
2019-05-09T17:21:59.607Z,49.30
2019-05-09T17:24:29.948Z,49.00
2019-05-09T17:27:00.708Z,49.00
2019-05-09T17:29:30.354Z,48.90
2019-05-09T17:31:59.972Z,48.80
2019-05-09T17:34:29.687Z,48.80
2019-05-09T17:36:59.328Z,48.80
2019-05-09T17:39:28.958Z,48.80
2019-05-09T17:41:58.638Z,48.60
2019-05-09T17:44:29.252Z,48.60
2019-05-09T17:46:58.880Z,48.60
2019-05-09T17:49:28.591Z,48.70
2019-05-09T17:51:58.545Z,48.80
2019-05-09T17:54:28.903Z,48.90
2019-05-09T17:56:59.879Z,48.90
2019-05-09T17:59:29.534Z,49.00
2019-05-09T18:01:59.158Z,49.00
2019-05-09T18:04:29.071Z,49.10
2019-05-09T18:06:58.811Z,49.10
2019-05-09T18:09:28.770Z,49.20
2019-05-09T18:11:58.473Z,49.20
2019-05-09T18:14:28.203Z,49.20
2019-05-09T18:16:58.322Z,49.30
2019-05-09T18:19:29.403Z,49.30
2019-05-09T18:21:59.499Z,49.30
2019-05-09T18:24:29.219Z,49.30
2019-05-09T18:26:58.851Z,49.40
2019-05-09T18:29:29.600Z,49.40
2019-05-09T18:32:16.831Z,49.40
2019-05-09T18:34:48.579Z,49.40
2019-05-09T18:37:18.015Z,49.40
2019-05-09T18:39:48.446Z,49.50
2019-05-09T18:42:18.231Z,49.50
2019-05-09T18:44:47.887Z,49.50
2019-05-09T18:47:18.483Z,49.50
2019-05-09T18:49:48.301Z,49.50
2019-05-09T18:52:18.012Z,49.60
2019-05-09T18:54:47.903Z,49.60
2019-05-09T18:57:17.531Z,49.70
2019-05-09T18:59:47.170Z,49.60
2019-05-09T19:02:16.967Z,49.70
2019-05-09T19:04:46.583Z,49.70
2019-05-09T19:07:22.250Z,49.70
2019-05-09T19:09:47.635Z,49.80
2019-05-09T19:12:17.275Z,49.80
2019-05-09T19:14:47.808Z,49.80
2019-05-09T19:17:50.115Z,49.80
2019-05-09T19:20:36.256Z,49.80
2019-05-09T19:23:06.027Z,49.90
2019-05-09T19:25:35.844Z,49.90
2019-05-09T19:28:06.699Z,49.90
2019-05-09T19:30:36.342Z,49.90
2019-05-09T19:33:06.232Z,49.90
2019-05-09T19:35:35.884Z,49.90
2019-05-09T19:38:05.675Z,50.00
2019-05-09T19:40:35.420Z,50.00
2019-05-09T19:43:05.123Z,50.00
2019-05-09T19:45:34.927Z,50.00
2019-05-09T19:48:04.720Z,50.00
2019-05-09T19:50:34.438Z,50.00
2019-05-09T19:53:04.155Z,50.00
2019-05-09T19:55:33.871Z,50.00
2019-05-09T19:58:03.593Z,50.00
2019-05-09T20:00:33.492Z,50.00
2019-05-09T20:03:03.196Z,50.10
2019-05-09T20:05:32.835Z,50.10
2019-05-09T20:08:02.484Z,50.10
2019-05-09T20:10:50.023Z,50.10
2019-05-09T20:13:28.678Z,50.10
2019-05-09T20:15:58.387Z,50.20
2019-05-09T20:18:28.041Z,50.20
2019-05-09T20:20:57.747Z,50.20
2019-05-09T20:23:27.447Z,50.20
2019-05-09T20:25:57.171Z,50.20
2019-05-09T20:28:26.823Z,50.20
2019-05-09T20:30:56.583Z,50.20
2019-05-09T20:33:26.255Z,50.20
2019-05-09T20:35:56.172Z,50.20
2019-05-09T20:38:26.074Z,50.20
2019-05-09T20:40:55.894Z,50.20
2019-05-09T20:43:25.712Z,50.20
2019-05-09T20:45:55.579Z,50.20
2019-05-09T20:48:25.392Z,50.20
2019-05-09T20:50:55.298Z,50.10
2019-05-09T20:53:25.190Z,50.20
2019-05-09T20:55:55.011Z,50.20
2019-05-09T20:58:24.847Z,50.20
2019-05-09T21:00:54.760Z,50.20
2019-05-09T21:03:24.571Z,50.30
2019-05-09T21:05:55.117Z,50.40
2019-05-09T21:08:25.895Z,50.40
2019-05-09T21:10:55.796Z,50.30
2019-05-09T21:13:25.619Z,50.40
2019-05-09T21:15:55.439Z,50.40
2019-05-09T21:18:25.371Z,50.40
2019-05-09T21:20:55.265Z,50.30
2019-05-09T21:23:25.257Z,50.40
2019-05-09T21:25:55.085Z,50.40
2019-05-09T21:28:24.972Z,50.40
2019-05-09T21:30:54.791Z,50.40
2019-05-09T21:33:24.614Z,50.30
2019-05-09T21:35:54.238Z,50.30
2019-05-09T21:38:23.862Z,50.30
2019-05-09T21:40:53.517Z,50.40
2019-05-09T21:43:23.139Z,50.30
2019-05-09T21:45:52.944Z,50.30
2019-05-09T21:48:22.651Z,50.30
2019-05-09T21:50:52.295Z,50.30
2019-05-09T21:53:21.937Z,50.30
2019-05-09T21:55:51.593Z,50.40
2019-05-09T21:58:21.351Z,50.50
2019-05-09T22:00:54.201Z,50.60
2019-05-09T22:03:25.685Z,50.70
2019-05-09T22:05:55.330Z,50.70
2019-05-09T22:08:25.031Z,50.80
2019-05-09T22:10:54.751Z,50.80
2019-05-09T22:13:24.377Z,50.80
2019-05-09T22:15:54.095Z,50.80
2019-05-09T22:18:23.720Z,50.80
2019-05-09T22:20:53.347Z,50.80
2019-05-09T22:23:23.947Z,50.90
2019-05-09T22:25:53.592Z,50.80
2019-05-09T22:28:23.320Z,50.90
2019-05-09T22:30:52.955Z,50.80
2019-05-09T22:33:22.579Z,50.80
2019-05-09T22:35:52.395Z,50.80
2019-05-09T22:38:22.019Z,50.90
2019-05-09T22:40:51.644Z,50.90
2019-05-09T22:43:21.280Z,50.90
2019-05-09T22:45:50.931Z,50.80
2019-05-09T22:48:20.636Z,50.80
2019-05-09T22:50:50.262Z,50.90
2019-05-09T22:53:19.897Z,50.80
2019-05-09T22:55:49.522Z,50.80
2019-05-09T22:58:19.164Z,50.80
2019-05-09T23:00:48.854Z,50.90
2019-05-09T23:03:18.492Z,50.80
2019-05-09T23:05:48.127Z,50.80
2019-05-09T23:08:17.767Z,50.90
2019-05-09T23:10:47.408Z,50.80
2019-05-09T23:13:17.039Z,50.90
2019-05-09T23:15:46.666Z,50.80
2019-05-09T23:18:16.319Z,50.90
2019-05-09T23:20:51.771Z,50.80
2019-05-09T23:23:25.875Z,50.80
2019-05-09T23:25:55.574Z,50.80
2019-05-09T23:28:25.798Z,50.80
2019-05-09T23:30:57.374Z,50.80
2019-05-09T23:33:28.432Z,50.80
2019-05-09T23:35:59.079Z,50.80
2019-05-09T23:38:28.776Z,50.80
2019-05-09T23:40:58.538Z,50.80
2019-05-09T23:43:28.296Z,50.90
2019-05-09T23:45:58.047Z,50.80
2019-05-09T23:48:27.768Z,50.80
2019-05-09T23:50:57.519Z,50.80
2019-05-09T23:53:35.254Z,50.80
2019-05-09T23:56:24.638Z,50.80
2019-05-09T23:59:11.995Z,50.80
